createdAt,value
2022-10-17T12:55:20.099Z,7.70
2022-10-17T12:57:50.122Z,7.10
2022-10-17T13:00:35.380Z,7.97
2022-10-17T13:03:25.425Z,7.03
2022-10-17T13:05:55.223Z,6.78
2022-10-17T13:08:33.261Z,6.93
2022-10-17T13:11:01.118Z,6.53
2022-10-17T13:13:48.854Z,6.72
2022-10-17T13:16:54.945Z,6.50
2022-10-17T13:19:29.199Z,6.93
2022-10-17T13:22:06.450Z,7.40
2022-10-17T13:24:40.286Z,6.97
2022-10-17T13:27:26.817Z,6.40
2022-10-17T13:29:56.795Z,6.80
2022-10-17T13:32:25.889Z,6.78
2022-10-17T13:35:27.790Z,6.95
2022-10-17T13:38:07.696Z,7.13
2022-10-17T13:40:49.668Z,7.20
2022-10-17T13:43:24.236Z,6.78
2022-10-17T13:46:25.585Z,6.88
2022-10-17T13:48:52.558Z,6.93
2022-10-17T13:51:19.936Z,7.53
2022-10-17T13:53:46.960Z,7.38
2022-10-17T13:56:33.690Z,7.55
2022-10-17T13:59:05.132Z,8.18
2022-10-17T14:01:32.627Z,7.05
2022-10-17T14:04:20.163Z,6.82
2022-10-17T14:06:49.809Z,7.43
2022-10-17T14:09:22.530Z,9.43
2022-10-17T14:12:04.264Z,7.50
2022-10-17T14:14:46.203Z,7.63
2022-10-17T14:17:24.498Z,7.78
2022-10-17T14:20:14.154Z,7.45
2022-10-17T14:22:50.425Z,7.40
2022-10-17T14:25:38.698Z,7.30
2022-10-17T14:28:11.870Z,7.18
2022-10-17T14:31:03.237Z,7.45
2022-10-17T14:33:31.916Z,8.25
2022-10-17T14:36:00.728Z,8.50
2022-10-17T14:38:29.114Z,7.68
2022-10-17T14:41:09.769Z,8.35
2022-10-17T14:43:51.899Z,7.97
2022-10-17T14:46:18.760Z,7.05
2022-10-17T14:48:47.683Z,8.13
2022-10-17T14:51:17.623Z,8.98
2022-10-17T14:54:19.187Z,7.25
2022-10-17T14:56:51.824Z,8.23
2022-10-17T14:59:52.104Z,7.13
2022-10-17T15:02:10.274Z,6.85
2022-10-17T15:04:37.245Z,7.45
2022-10-17T15:07:04.020Z,7.82
2022-10-17T15:09:31.169Z,7.05
2022-10-17T15:12:13.768Z,7.85
2022-10-17T15:14:40.513Z,7.57
2022-10-17T15:17:26.177Z,7.20
2022-10-17T15:19:53.247Z,7.40
2022-10-17T15:22:23.881Z,7.40
2022-10-17T15:27:23.335Z,7.25
2022-10-17T15:29:51.619Z,7.75
2022-10-17T15:32:18.755Z,7.35
2022-10-17T15:34:45.725Z,7.05
2022-10-17T15:37:34.012Z,6.78
2022-10-17T15:40:00.786Z,6.60
2022-10-17T15:42:29.922Z,7.78
2022-10-17T15:44:57.370Z,7.53
2022-10-17T15:47:35.421Z,7.57
2022-10-17T15:50:02.913Z,7.32
2022-10-17T15:52:35.645Z,7.70
2022-10-17T15:55:05.180Z,7.57
2022-10-17T15:57:36.476Z,8.30
2022-10-17T16:00:06.297Z,8.10
2022-10-17T16:02:34.160Z,7.88
2022-10-17T16:05:01.177Z,7.80
2022-10-17T16:07:28.096Z,7.65
2022-10-17T16:09:55.059Z,8.55
2022-10-17T16:12:30.004Z,7.93
2022-10-17T16:14:57.307Z,8.55
2022-10-17T16:17:24.080Z,7.40
2022-10-17T16:19:50.875Z,7.97
2022-10-17T16:22:30.114Z,7.72
2022-10-17T16:24:59.255Z,8.13
2022-10-17T16:27:26.627Z,8.85
2022-10-17T16:29:53.478Z,8.95
2022-10-17T16:32:20.229Z,8.35
2022-10-17T16:34:47.292Z,11.20
2022-10-17T16:37:14.299Z,8.70
2022-10-17T16:39:41.080Z,8.88
2022-10-17T16:42:07.840Z,8.23
2022-10-17T16:44:34.604Z,8.25
2022-10-17T16:47:01.565Z,9.13
2022-10-17T16:49:28.470Z,9.52
2022-10-17T16:51:55.172Z,9.15
2022-10-17T16:54:21.843Z,8.45
2022-10-17T16:56:49.876Z,9.10
2022-10-17T16:59:16.615Z,9.50
2022-10-17T17:01:43.426Z,7.82
2022-10-17T17:04:10.441Z,7.35
2022-10-17T17:06:37.387Z,7.28
2022-10-17T17:09:04.366Z,7.10
2022-10-17T17:11:32.396Z,6.97
2022-10-17T17:14:01.757Z,6.63
2022-10-17T17:16:30.136Z,6.55
2022-10-17T17:18:59.543Z,7.50
2022-10-17T17:21:29.620Z,6.82
2022-10-17T17:23:58.257Z,7.50
2022-10-17T17:26:26.268Z,6.63
2022-10-17T17:28:56.076Z,6.55
2022-10-17T17:31:26.657Z,7.60
2022-10-17T17:36:38.792Z,7.35
2022-10-17T17:39:08.645Z,7.10
2022-10-17T17:41:35.984Z,7.33
2022-10-17T17:44:03.944Z,7.10
2022-10-17T17:46:30.805Z,7.80
2022-10-17T17:48:57.611Z,7.70
2022-10-17T17:51:29.368Z,8.10
2022-10-17T17:53:56.845Z,8.60
2022-10-17T17:56:28.908Z,9.88
2022-10-17T17:58:58.663Z,9.68
2022-10-17T18:01:28.199Z,9.80
2022-10-17T18:03:56.585Z,10.68
2022-10-17T18:06:23.745Z,9.57
2022-10-17T18:08:53.214Z,9.57
2022-10-17T18:11:22.021Z,9.60
2022-10-17T18:14:01.539Z,10.68
2022-10-17T18:16:29.832Z,10.00
2022-10-17T18:18:59.508Z,10.07
2022-10-17T18:21:29.269Z,11.30
2022-10-17T18:23:56.273Z,11.15
2022-10-17T18:26:23.556Z,11.80
2022-10-17T18:28:50.765Z,10.43
2022-10-17T18:31:24.380Z,15.95
2022-10-17T18:33:52.986Z,10.23
2022-10-17T18:36:21.061Z,9.90
2022-10-17T18:38:48.372Z,10.07
2022-10-17T18:41:23.580Z,9.15
2022-10-17T18:43:51.710Z,9.85
2022-10-17T18:46:21.010Z,11.00
2022-10-17T18:48:49.129Z,10.40
2022-10-17T18:51:18.655Z,10.52
2022-10-17T18:53:48.323Z,10.65
2022-10-17T18:56:15.271Z,10.77
2022-10-17T18:58:42.396Z,10.68
2022-10-17T19:01:18.207Z,12.07
2022-10-17T19:03:47.121Z,9.43
2022-10-17T19:06:17.548Z,10.15
2022-10-17T19:08:45.481Z,10.38
2022-10-17T19:11:18.086Z,9.13
2022-10-17T19:16:26.623Z,10.32
2022-10-17T19:18:56.332Z,9.02
2022-10-17T19:21:23.725Z,8.75
2022-10-17T19:23:53.656Z,8.07
2022-10-17T19:26:21.252Z,8.73
2022-10-17T19:28:48.806Z,7.82
2022-10-17T19:31:17.938Z,7.85
2022-10-17T19:33:45.290Z,7.65
2022-10-17T19:36:13.252Z,8.38
2022-10-17T19:38:40.178Z,7.60
2022-10-17T19:41:09.605Z,7.30
2022-10-17T19:43:44.527Z,7.22
2022-10-17T19:46:16.763Z,6.75
2022-10-17T19:48:44.330Z,11.25
2022-10-17T19:51:13.743Z,6.63
2022-10-17T19:53:41.248Z,6.40
2022-10-17T19:56:09.394Z,5.78
2022-10-17T19:58:45.024Z,5.80
2022-10-17T20:01:20.223Z,6.55
2022-10-17T20:03:47.976Z,6.20
2022-10-17T20:06:15.710Z,5.72
2022-10-17T20:08:42.909Z,5.90
2022-10-17T20:11:12.761Z,6.30
2022-10-17T20:13:40.507Z,6.53
2022-10-17T20:16:09.004Z,5.53
2022-10-17T20:18:36.206Z,5.90
2022-10-17T20:21:06.371Z,6.07
2022-10-17T20:23:33.086Z,5.85
2022-10-17T20:26:25.389Z,6.10
2022-10-17T20:28:53.770Z,5.68
2022-10-17T20:31:20.875Z,5.40
2022-10-17T20:33:47.700Z,5.70
2022-10-17T20:36:17.316Z,5.82
2022-10-17T20:38:44.217Z,5.20
2022-10-17T20:41:11.013Z,5.80
2022-10-17T20:43:38.028Z,6.10
2022-10-17T20:46:22.877Z,6.07
2022-10-17T20:48:53.577Z,5.95
2022-10-17T20:51:21.120Z,5.72
2022-10-17T20:53:48.718Z,5.68
2022-10-17T20:56:35.045Z,5.50
2022-10-17T20:59:04.707Z,5.90
2022-10-17T21:01:33.097Z,6.13
2022-10-17T21:04:15.827Z,6.40
2022-10-17T21:06:51.877Z,5.70
2022-10-17T21:09:19.216Z,5.55
2022-10-17T21:11:46.701Z,5.60
2022-10-17T21:14:16.592Z,5.75
2022-10-17T21:16:43.992Z,5.63
2022-10-17T21:19:11.842Z,5.78
2022-10-17T21:21:41.282Z,5.97
2022-10-17T21:24:14.259Z,6.05
2022-10-17T21:26:42.436Z,5.95
2022-10-17T21:29:11.297Z,5.70
2022-10-17T21:31:40.910Z,6.70
2022-10-17T21:34:09.846Z,6.65
2022-10-17T21:36:36.670Z,6.15
2022-10-17T21:39:04.087Z,7.35
2022-10-17T21:41:31.405Z,6.65
2022-10-17T21:44:04.778Z,6.90
2022-10-17T21:46:32.027Z,6.57
2022-10-17T21:49:00.169Z,7.03
2022-10-17T21:51:27.629Z,8.20
2022-10-17T21:53:56.429Z,6.97
2022-10-17T21:56:28.069Z,7.03
2022-10-17T21:58:55.362Z,6.63
2022-10-17T22:01:24.912Z,7.15
2022-10-17T22:03:54.247Z,7.25
2022-10-17T22:06:40.513Z,7.55
2022-10-17T22:09:37.564Z,7.53
2022-10-17T22:12:04.474Z,6.97
2022-10-17T22:14:31.218Z,7.10
2022-10-17T22:16:57.877Z,7.43
2022-10-17T22:19:26.268Z,7.40
2022-10-17T22:21:53.805Z,7.50
2022-10-17T22:26:53.627Z,7.05
2022-10-17T22:29:20.755Z,7.40
2022-10-17T22:31:47.666Z,7.32
2022-10-17T22:34:16.637Z,7.78
2022-10-17T22:36:43.615Z,6.72
2022-10-17T22:39:10.830Z,6.93
2022-10-17T22:41:37.637Z,6.97
2022-10-17T22:44:04.681Z,6.50
2022-10-17T22:46:31.407Z,7.25
2022-10-17T22:48:58.399Z,7.47
2022-10-17T22:51:25.358Z,7.15
2022-10-17T22:53:52.150Z,7.43
2022-10-17T22:56:20.859Z,6.60
2022-10-17T22:58:47.972Z,7.13
2022-10-17T23:01:23.621Z,6.70
2022-10-17T23:03:51.836Z,7.03
2022-10-17T23:06:19.329Z,7.05
2022-10-17T23:08:46.278Z,6.97
2022-10-17T23:11:13.770Z,6.68
2022-10-17T23:13:40.876Z,6.63
2022-10-17T23:16:08.641Z,6.78
2022-10-17T23:18:36.844Z,6.63
2022-10-17T23:21:04.240Z,6.13
2022-10-17T23:23:30.924Z,6.32
2022-10-17T23:26:05.339Z,6.63
2022-10-17T23:28:33.694Z,6.47
2022-10-17T23:31:16.635Z,6.65
2022-10-17T23:33:45.055Z,7.20
2022-10-17T23:36:14.196Z,7.47
2022-10-17T23:38:42.673Z,6.38
2022-10-17T23:41:09.641Z,6.47
2022-10-17T23:43:37.069Z,7.07
2022-10-17T23:46:05.252Z,7.03
2022-10-17T23:48:32.013Z,6.63
2022-10-17T23:50:58.831Z,5.90
2022-10-17T23:53:26.481Z,6.28
2022-10-17T23:55:53.299Z,6.18
2022-10-17T23:58:20.042Z,6.30
